Crew | Aerofun Virtual



 METAR AND TAF INFORMATION
METAR FOR UMMS
ADDS - METARS form results

(0810 UTC 22 July 2019)
Data provider http://aviationweather.gov/metar/data/
 
METAR text: UMMS 220800Z VRB01MPS 9999 -RA OVC038 18/17 Q1016 R31R/210057 NOSIG
Conditions at: UMMS (MINSK , BY) observed 0800 UTC 22 July 2019
Temperature: 18.0°C (64°F)
Dewpoint: 17.0°C (63°F) [RH = 94%]
Pressure (altimeter): 30.00 inches Hg (1016.0 mb)
Winds: variable direction winds at 2 MPH (2 knots; 1.0 m/s)
Visibility: 6 or more miles (10+ km)
Ceiling: 3800 feet AGL
Clouds: overcast cloud deck at 3800 feet AGL
Weather: -RA  (light rain)

METAR text: UMMS 220742Z 27001MPS 9999 -RA OVC025 18/17 Q1015 R31R/210057 NOSIG
Conditions at: UMMS (MINSK , BY) observed 0742 UTC 22 July 2019
Temperature: 18.0°C (64°F)
Dewpoint: 17.0°C (63°F) [RH = 94%]
Pressure (altimeter): 29.97 inches Hg (1015.0 mb)
Winds: from the W (270 degrees) at 2 MPH (2 knots; 1.0 m/s)
Visibility: 6 or more miles (10+ km)
Ceiling: 2500 feet AGL
Clouds: overcast cloud deck at 2500 feet AGL
Weather: -RA  (light rain)

METAR text: UMMS 220730Z 26002MPS 9999 -RA OVC013 18/17 Q1016 R31R/210057 NOSIG
Conditions at: UMMS (MINSK , BY) observed 0730 UTC 22 July 2019
Temperature: 18.0°C (64°F)
Dewpoint: 17.0°C (63°F) [RH = 94%]
Pressure (altimeter): 30.00 inches Hg (1016.0 mb)
Winds: from the W (260 degrees) at 5 MPH (4 knots; 2.1 m/s)
Visibility: 6 or more miles (10+ km)
Ceiling: 1300 feet AGL
Clouds: overcast cloud deck at 1300 feet AGL
Weather: -RA  (light rain)

Forecast for: UMMS (MINSK , BY)
Text: TAF UMMS 220502Z 2206/2306 29006MPS 9999 BKN020
Forecast period: 0600 UTC 22 July 2019 to 0600 UTC 23 July 2019
Forecast type: FROM: standard forecast or significant change
Winds: from the WNW (290 degrees) at 14 MPH (12 knots; 6.2 m/s)
Visibility: 6 or more miles 10+ km)
Ceiling: 2000 feet AGL
Clouds: broken clouds at 2000 feet AGL
Weather: no significant weather forecast for this period
Text: TEMPO 2206/2220 VRB14MPS 1200 TSRA SQ SCT006 BKN025CB
Forecast period: 0600 to 2000 UTC 22 July 2019
Forecast type: TEMPORARY: The following changes expected for less than half the time period
Winds: variable direction winds at 31 MPH (27 knots; 13.9 m/s)
Visibility: 0.75 miles (1.21 km)
Ceiling: 2500 feet AGL
Clouds: scattered clouds at 600 feet AGL
broken clouds at 2500 feet AGL
Weather: TSRA SQ  (rain associated with thunderstorm(s), squal)
Text: TEMPO 2220/2306 2100 -SHRA SCT005 BKN025CB
Forecast period: 2000 UTC 22 July 2019 to 0600 UTC 23 July 2019
Forecast type: TEMPORARY: The following changes expected for less than half the time period
Visibility: 1.30 miles (2.09 km)
Ceiling: 2500 feet AGL
Clouds: scattered clouds at 500 feet AGL
broken clouds at 2500 feet AGL
Weather: -SHRA  (light rain showers)

 AIRPORT MAP

 RUNWAY INFORMATION
Runway 13 Runway length 11946 ft Runway width 197 ft
Runway elevation 640 ft Runway displaced threshold 0 ft Runway heading 139
Runway 31 Runway length 11946 ft Runway width 197 ft
Runway elevation 670 ft Runway displaced threshold 0 ft Runway heading 319

 AIRPORT FREQUENCIES
Type APP Name MINSK APP Frequency 125.9 MHZ
Type ATIS Name ATIS Frequency 128.85 MHZ
Type GND Name GND Frequency 121.7 MHZ
Type PMSV Name MINSK VOLM Frequency 126.675 MHZ
Type RDR Name MINSK RADA Frequency 125.25 MHZ
Type TWR Name TWR Frequency 118.3 MHZ

 AIRPORT NEAR NAVIGATION AIDS
Type NDB Name Minsk-2 Frequency 635 KHZ
Type VOR-DME Name Minsk-2 Frequency 113600 KHZ
Type NDB Name Minsk-2 Frequency 635 KHZ